MAPA DE AEROPUERTO

INFORMACIÓN METAR y TAF

METAR FOR SBRJ
ADDS - METARS form results

(1126 UTC 01 December 2020)
Data provider http://aviationweather.gov/metar/data/
 
METAR text: SBRJ 011100Z 14005KT CAVOK 26/22 Q1011
Conditions at: SBRJ (SANTOS DUMONT/RI, BR) observed 1100 UTC 01 December 2020
Temperature: 26.0°C (79°F)
Dewpoint: 22.0°C (72°F) [RH = 79%]
Pressure (altimeter): 29.85 inches Hg (1011.0 mb)
Winds: from the SE (140 degrees) at 6 MPH (5 knots; 2.6 m/s)
Visibility: 6 or more miles (10+ km)
Ceiling: ceiling and visibility are OK
Clouds: unknown
Weather: no significant weather observed at this time

METAR text: SBRJ 011045Z 14004KT 070V170 CAVOK 26/22 Q1011
Conditions at: SBRJ (SANTOS DUMONT/RI, BR) observed 1045 UTC 01 December 2020
Temperature: 26.0°C (79°F)
Dewpoint: 22.0°C (72°F) [RH = 79%]
Pressure (altimeter): 29.85 inches Hg (1011.0 mb)
Winds: from the SE (140 degrees) at 5 MPH (4 knots; 2.1 m/s)
Visibility: 6 or more miles (10+ km)
Ceiling: ceiling and visibility are OK
Clouds: unknown
Weather: no significant weather observed at this time

Forecast for: SBRJ (SANTOS DUMONT/RI, BR)
Text: TAF SBRJ 010230Z 0106/0118 01010KT 9999 FEW025 TN25/0109Z TX30/0116Z
Forecast period: 0600 to 0900 UTC 01 December 2020
Forecast type: FROM: standard forecast or significant change
Winds: from the N (10 degrees) at 12 MPH (10 knots; 5.1 m/s)
Visibility: 6 or more miles (10+ km)
Ceiling: at least 12,000 feet AGL
Clouds: few clouds at 2500 feet AGL
Weather: no significant weather forecast for this period
Text: BECMG 0109/0111 34005KT
Forecast period: 0900 to 1300 UTC 01 December 2020
Forecast type: BECOMING: Conditions expected to become as follows by 1100 UTC 01 December 2020
Winds: from the NNW (340 degrees) at 6 MPH (5 knots; 2.6 m/s)
Visibility: 6 or more miles (10+ km)
Ceiling: at least 12,000 feet AGL
Clouds: few clouds at 2500 feet AGL
Weather: no significant weather forecast for this period
Text: BECMG 0113/0115 17015KT 9999 SCT025 FEW035TCU
Forecast period: 1300 to 1800 UTC 01 December 2020
Forecast type: BECOMING: Conditions expected to become as follows by 1500 UTC 01 December 2020
Winds: from the S (170 degrees) at 17 MPH (15 knots; 7.7 m/s)
Visibility: 6 or more miles (10+ km)
Ceiling: at least 12,000 feet AGL
Clouds: scattered clouds at 2500 feet AGL
few clouds at 3500 feet AGL
Weather: no significant weather forecast for this period
Text: PROB40 0117/0118 8000 TS BKN017 FEW030CB RMK PGB
Forecast period: 1700 to 1800 UTC 01 December 2020
Forecast type: PROBABLE: 40 percent likelihood of the following during this time
Visibility: 5 miles (8 km)
Ceiling: 1700 feet AGL
Clouds: broken clouds at 1700 feet AGL
few clouds at 3000 feet AGL
Weather: TS  (thunderstorm)